KSFO/SFO METAR and TAF weather

Enter ICAO airport designator
Station Type Date Time Source
KSFO METAR 2020/10/29 16:56 UTC NOAA

KSFO 291656Z 00000KT 9SM CLR 16/08 A3010 RMK AO2 SLP191 T01610083


Station Type Date Time Source
KSFO Decoded METAR 2020/10/29 16:56 UTC NOAA

SAN FRANCISCO INTERNATIONAL AIRPORT , CA, United States (KSFO) 37-37N 122-22W 26M
Oct 29, 2020 - 12:56 PM EDT / 2020.10.29 1656 UTC
Wind: Calm:0
Visibility: 9 mile(s):0
Sky conditions: clear
Temperature: 61.0 F (16.1 C)
Dew Point: 46.9 F (8.3 C)
Relative Humidity: 59%
Pressure (altimeter): 30.1 in. Hg (1019 hPa)
ob: KSFO 291656Z 00000KT 9SM CLR 16/08 A3010 RMK AO2 SLP191 T01610083
cycle: 17

Station Type Date Time Source
KSFO TAF 2020/10/29 18:34 UTC NOAA

TAF KSFO 291731Z 2918/3024 VRB03KT P6SM SKC
FM292200 29010KT P6SM SKC
FM300500 VRB05KT P6SM SKC
FM300800 VRB03KT P6SM FEW004
FM302100 29008KT P6SM SKC

Example: see airport list